sensor_id;sensor_type;location;lat;lon;timestamp;P1;durP1;ratioP1;P2;durP2;ratioP2
67344;SDS011;54230;52.402;6.276;2022-12-18T00:00:00;84.8;;;39.6;;
67344;SDS011;54230;52.402;6.276;2022-12-18T00:05:00;81.3;;;42.3;;
67344;SDS011;54230;52.402;6.276;2022-12-18T00:10:00;80.2;;;41.1;;
67344;SDS011;54230;52.402;6.276;2022-12-18T00:15:00;76.2;;;39.6;;
67344;SDS011;54230;52.402;6.276;2022-12-18T00:20:00;83.2;;;39.6;;
67344;SDS011;54230;52.402;6.276;2022-12-18T00:25:00;80.3;;;39.2;;
67344;SDS011;54230;52.402;6.276;2022-12-18T00:30:00;92.8;;;41.6;;
67344;SDS011;54230;52.402;6.276;2022-12-18T00:35:00;87.2;;;40.5;;
67344;SDS011;54230;52.402;6.276;2022-12-18T00:40:00;88.6;;;40.8;;
67344;SDS011;54230;52.402;6.276;2022-12-18T00:45:00;95.3;;;43.1;;
67344;SDS011;54230;52.402;6.276;2022-12-18T00:50:00;90.4;;;41.2;;
67344;SDS011;54230;52.402;6.276;2022-12-18T00:55:00;85.7;;;40.9;;
67344;SDS011;54230;52.402;6.276;2022-12-18T01:00:00;81.8;;;40.0;;
67344;SDS011;54230;52.402;6.276;2022-12-18T01:05:00;85.3;;;40.0;;
67344;SDS011;54230;52.402;6.276;2022-12-18T01:10:00;85.5;;;38.3;;
67344;SDS011;54230;52.402;6.276;2022-12-18T01:15:00;81.9;;;39.3;;
67344;SDS011;54230;52.402;6.276;2022-12-18T01:20:00;86.8;;;40.5;;
67344;SDS011;54230;52.402;6.276;2022-12-18T01:25:00;89.0;;;40.7;;
67344;SDS011;54230;52.402;6.276;2022-12-18T01:30:00;83.8;;;38.7;;
67344;SDS011;54230;52.402;6.276;2022-12-18T01:35:00;84.3;;;39.1;;
67344;SDS011;54230;52.402;6.276;2022-12-18T01:40:00;93.5;;;39.9;;
67344;SDS011;54230;52.402;6.276;2022-12-18T01:45:04;84.2;;;38.3;;
67344;SDS011;54230;52.402;6.276;2022-12-18T01:50:01;80.8;;;37.8;;
67344;SDS011;54230;52.402;6.276;2022-12-18T01:55:00;78.0;;;36.3;;
67344;SDS011;54230;52.402;6.276;2022-12-18T02:00:01;74.2;;;37.2;;
67344;SDS011;54230;52.402;6.276;2022-12-18T02:05:00;74.1;;;37.0;;
67344;SDS011;54230;52.402;6.276;2022-12-18T02:10:02;73.6;;;35.0;;
67344;SDS011;54230;52.402;6.276;2022-12-18T02:15:02;71.1;;;37.4;;
67344;SDS011;54230;52.402;6.276;2022-12-18T02:20:02;72.4;;;37.2;;
67344;SDS011;54230;52.402;6.276;2022-12-18T02:25:05;69.0;;;36.2;;
67344;SDS011;54230;52.402;6.276;2022-12-18T02:30:00;74.7;;;37.6;;
67344;SDS011;54230;52.402;6.276;2022-12-18T02:35:00;72.8;;;34.3;;
67344;SDS011;54230;52.402;6.276;2022-12-18T02:40:00;75.4;;;36.7;;
67344;SDS011;54230;52.402;6.276;2022-12-18T02:45:00;68.8;;;35.0;;
67344;SDS011;54230;52.402;6.276;2022-12-18T02:50:02;66.3;;;34.8;;
67344;SDS011;54230;52.402;6.276;2022-12-18T02:55:03;71.0;;;35.9;;
67344;SDS011;54230;52.402;6.276;2022-12-18T03:00:02;68.2;;;34.5;;
67344;SDS011;54230;52.402;6.276;2022-12-18T03:05:01;73.7;;;36.9;;
67344;SDS011;54230;52.402;6.276;2022-12-18T03:10:00;73.1;;;37.1;;
67344;SDS011;54230;52.402;6.276;2022-12-18T03:15:01;73.8;;;35.6;;
67344;SDS011;54230;52.402;6.276;2022-12-18T03:20:02;74.5;;;36.1;;
67344;SDS011;54230;52.402;6.276;2022-12-18T03:25:00;71.0;;;34.7;;
67344;SDS011;54230;52.402;6.276;2022-12-18T03:30:01;71.3;;;35.7;;
67344;SDS011;54230;52.402;6.276;2022-12-18T03:35:00;67.0;;;34.2;;
67344;SDS011;54230;52.402;6.276;2022-12-18T03:40:00;67.7;;;35.1;;
67344;SDS011;54230;52.402;6.276;2022-12-18T03:45:02;67.9;;;34.2;;
67344;SDS011;54230;52.402;6.276;2022-12-18T03:50:02;65.0;;;34.3;;
67344;SDS011;54230;52.402;6.276;2022-12-18T03:55:00;60.9;;;33.2;;
67344;SDS011;54230;52.402;6.276;2022-12-18T04:00:01;60.3;;;33.1;;
67344;SDS011;54230;52.402;6.276;2022-12-18T04:05:01;64.5;;;34.1;;
67344;SDS011;54230;52.402;6.276;2022-12-18T04:10:00;64.1;;;32.4;;
67344;SDS011;54230;52.402;6.276;2022-12-18T04:15:00;60.2;;;33.0;;
67344;SDS011;54230;52.402;6.276;2022-12-18T04:20:00;58.9;;;31.3;;
67344;SDS011;54230;52.402;6.276;2022-12-18T04:25:00;60.1;;;32.8;;
67344;SDS011;54230;52.402;6.276;2022-12-18T04:30:00;62.4;;;32.9;;
67344;SDS011;54230;52.402;6.276;2022-12-18T04:35:00;61.6;;;34.0;;
67344;SDS011;54230;52.402;6.276;2022-12-18T04:40:00;61.9;;;34.0;;
67344;SDS011;54230;52.402;6.276;2022-12-18T04:45:00;60.5;;;33.1;;
67344;SDS011;54230;52.402;6.276;2022-12-18T04:50:00;61.6;;;31.9;;
67344;SDS011;54230;52.402;6.276;2022-12-18T04:55:00;57.4;;;31.3;;
67344;SDS011;54230;52.402;6.276;2022-12-18T05:00:00;57.0;;;31.9;;
67344;SDS011;54230;52.402;6.276;2022-12-18T05:05:00;54.2;;;31.1;;
67344;SDS011;54230;52.402;6.276;2022-12-18T05:10:00;56.1;;;30.5;;
67344;SDS011;54230;52.402;6.276;2022-12-18T05:15:00;50.1;;;30.1;;
67344;SDS011;54230;52.402;6.276;2022-12-18T05:20:00;49.9;;;29.2;;
67344;SDS011;54230;52.402;6.276;2022-12-18T05:25:00;54.5;;;30.3;;
67344;SDS011;54230;52.402;6.276;2022-12-18T05:30:00;51.7;;;28.9;;
67344;SDS011;54230;52.402;6.276;2022-12-18T05:35:00;51.9;;;29.6;;
67344;SDS011;54230;52.402;6.276;2022-12-18T05:40:00;49.6;;;29.4;;
67344;SDS011;54230;52.402;6.276;2022-12-18T05:45:00;49.0;;;28.1;;
67344;SDS011;54230;52.402;6.276;2022-12-18T05:50:00;49.4;;;28.1;;
67344;SDS011;54230;52.402;6.276;2022-12-18T05:55:00;49.1;;;27.5;;
67344;SDS011;54230;52.402;6.276;2022-12-18T06:00:00;48.0;;;28.2;;
67344;SDS011;54230;52.402;6.276;2022-12-18T06:05:00;45.6;;;27.4;;
67344;SDS011;54230;52.402;6.276;2022-12-18T06:10:00;49.7;;;28.8;;
67344;SDS011;54230;52.402;6.276;2022-12-18T06:15:00;46.4;;;26.8;;
67344;SDS011;54230;52.402;6.276;2022-12-18T06:20:00;48.2;;;27.4;;
67344;SDS011;54230;52.402;6.276;2022-12-18T06:25:00;50.2;;;28.0;;
67344;SDS011;54230;52.402;6.276;2022-12-18T06:30:00;46.8;;;28.6;;
67344;SDS011;54230;52.402;6.276;2022-12-18T06:35:00;49.7;;;28.3;;
67344;SDS011;54230;52.402;6.276;2022-12-18T06:40:00;48.7;;;28.6;;
67344;SDS011;54230;52.402;6.276;2022-12-18T06:45:00;45.7;;;27.7;;
67344;SDS011;54230;52.402;6.276;2022-12-18T06:50:00;47.6;;;27.7;;
67344;SDS011;54230;52.402;6.276;2022-12-18T06:55:00;43.1;;;26.8;;
67344;SDS011;54230;52.402;6.276;2022-12-18T07:00:00;43.8;;;28.7;;
67344;SDS011;54230;52.402;6.276;2022-12-18T07:05:00;42.4;;;26.4;;
67344;SDS011;54230;52.402;6.276;2022-12-18T07:10:00;40.6;;;26.0;;
67344;SDS011;54230;52.402;6.276;2022-12-18T07:15:00;45.5;;;27.5;;
67344;SDS011;54230;52.402;6.276;2022-12-18T07:20:00;42.5;;;27.0;;
67344;SDS011;54230;52.402;6.276;2022-12-18T07:25:00;45.9;;;27.7;;
67344;SDS011;54230;52.402;6.276;2022-12-18T07:30:00;45.2;;;26.2;;
67344;SDS011;54230;52.402;6.276;2022-12-18T07:35:00;39.7;;;26.9;;
67344;SDS011;54230;52.402;6.276;2022-12-18T07:40:00;42.8;;;26.4;;
67344;SDS011;54230;52.402;6.276;2022-12-18T07:45:00;42.9;;;27.2;;
67344;SDS011;54230;52.402;6.276;2022-12-18T07:50:00;43.9;;;27.4;;
67344;SDS011;54230;52.402;6.276;2022-12-18T07:55:00;41.2;;;26.0;;
67344;SDS011;54230;52.402;6.276;2022-12-18T08:00:00;41.5;;;26.5;;
67344;SDS011;54230;52.402;6.276;2022-12-18T08:05:00;42.6;;;26.9;;
67344;SDS011;54230;52.402;6.276;2022-12-18T08:10:00;43.3;;;26.8;;
67344;SDS011;54230;52.402;6.276;2022-12-18T08:15:00;44.4;;;26.8;;
67344;SDS011;54230;52.402;6.276;2022-12-18T08:20:00;46.4;;;28.5;;
67344;SDS011;54230;52.402;6.276;2022-12-18T08:25:00;47.0;;;27.2;;
67344;SDS011;54230;52.402;6.276;2022-12-18T08:30:00;43.1;;;28.1;;
67344;SDS011;54230;52.402;6.276;2022-12-18T08:35:00;44.2;;;26.4;;
67344;SDS011;54230;52.402;6.276;2022-12-18T08:40:00;41.6;;;27.8;;
67344;SDS011;54230;52.402;6.276;2022-12-18T08:45:00;41.2;;;27.3;;
67344;SDS011;54230;52.402;6.276;2022-12-18T08:50:00;39.0;;;25.9;;
67344;SDS011;54230;52.402;6.276;2022-12-18T08:55:00;42.2;;;28.4;;
67344;SDS011;54230;52.402;6.276;2022-12-18T09:00:00;40.1;;;28.9;;
67344;SDS011;54230;52.402;6.276;2022-12-18T09:05:00;40.3;;;27.8;;
67344;SDS011;54230;52.402;6.276;2022-12-18T09:10:00;35.6;;;25.6;;
67344;SDS011;54230;52.402;6.276;2022-12-18T09:15:00;37.4;;;28.1;;
67344;SDS011;54230;52.402;6.276;2022-12-18T09:20:00;38.2;;;27.4;;
67344;SDS011;54230;52.402;6.276;2022-12-18T09:25:00;34.3;;;26.2;;
67344;SDS011;54230;52.402;6.276;2022-12-18T09:30:00;36.6;;;27.2;;
67344;SDS011;54230;52.402;6.276;2022-12-18T09:35:00;33.4;;;25.5;;
67344;SDS011;54230;52.402;6.276;2022-12-18T09:40:00;33.7;;;26.4;;
67344;SDS011;54230;52.402;6.276;2022-12-18T09:45:00;33.8;;;27.7;;
67344;SDS011;54230;52.402;6.276;2022-12-18T09:50:01;35.6;;;27.4;;
67344;SDS011;54230;52.402;6.276;2022-12-18T09:55:01;33.2;;;27.2;;
67344;SDS011;54230;52.402;6.276;2022-12-18T10:00:02;31.7;;;25.3;;
67344;SDS011;54230;52.402;6.276;2022-12-18T10:05:03;30.9;;;24.4;;
67344;SDS011;54230;52.402;6.276;2022-12-18T10:10:01;33.4;;;26.2;;
67344;SDS011;54230;52.402;6.276;2022-12-18T10:15:02;31.4;;;25.5;;
67344;SDS011;54230;52.402;6.276;2022-12-18T10:20:01;31.3;;;26.6;;
67344;SDS011;54230;52.402;6.276;2022-12-18T10:25:01;27.8;;;23.5;;
67344;SDS011;54230;52.402;6.276;2022-12-18T10:30:00;27.4;;;23.8;;
67344;SDS011;54230;52.402;6.276;2022-12-18T10:35:00;29.1;;;24.0;;
67344;SDS011;54230;52.402;6.276;2022-12-18T10:40:09;29.6;;;24.7;;
67344;SDS011;54230;52.402;6.276;2022-12-18T10:45:01;26.8;;;23.9;;
67344;SDS011;54230;52.402;6.276;2022-12-18T10:50:00;26.5;;;23.7;;
67344;SDS011;54230;52.402;6.276;2022-12-18T10:55:01;23.7;;;21.1;;
67344;SDS011;54230;52.402;6.276;2022-12-18T11:00:12;24.5;;;21.9;;
67344;SDS011;54230;52.402;6.276;2022-12-18T11:05:00;23.3;;;20.8;;
67344;SDS011;54230;52.402;6.276;2022-12-18T11:10:03;25.1;;;22.6;;
67344;SDS011;54230;52.402;6.276;2022-12-18T11:15:00;24.3;;;21.7;;
67344;SDS011;54230;52.402;6.276;2022-12-18T11:20:00;24.9;;;22.4;;
67344;SDS011;54230;52.402;6.276;2022-12-18T11:25:00;23.4;;;21.0;;
67344;SDS011;54230;52.402;6.276;2022-12-18T11:30:07;24.7;;;22.1;;
67344;SDS011;54230;52.402;6.276;2022-12-18T11:35:03;24.1;;;21.5;;
67344;SDS011;54230;52.402;6.276;2022-12-18T11:40:01;25.3;;;22.6;;
67344;SDS011;54230;52.402;6.276;2022-12-18T11:45:01;23.6;;;20.9;;
67344;SDS011;54230;52.402;6.276;2022-12-18T11:50:01;24.0;;;20.6;;
67344;SDS011;54230;52.402;6.276;2022-12-18T11:55:00;22.8;;;20.3;;
67344;SDS011;54230;52.402;6.276;2022-12-18T12:00:02;23.7;;;21.1;;
67344;SDS011;54230;52.402;6.276;2022-12-18T12:05:03;24.0;;;19.9;;
67344;SDS011;54230;52.402;6.276;2022-12-18T12:10:03;24.8;;;21.7;;
67344;SDS011;54230;52.402;6.276;2022-12-18T12:15:02;23.2;;;20.6;;
67344;SDS011;54230;52.402;6.276;2022-12-18T12:20:02;25.3;;;22.7;;
67344;SDS011;54230;52.402;6.276;2022-12-18T12:25:04;24.9;;;22.2;;
67344;SDS011;54230;52.402;6.276;2022-12-18T12:30:02;22.5;;;20.1;;
67344;SDS011;54230;52.402;6.276;2022-12-18T12:35:05;22.7;;;19.5;;
67344;SDS011;54230;52.402;6.276;2022-12-18T12:40:00;22.9;;;20.5;;
67344;SDS011;54230;52.402;6.276;2022-12-18T12:45:00;22.9;;;20.4;;
67344;SDS011;54230;52.402;6.276;2022-12-18T12:50:01;22.3;;;20.0;;
67344;SDS011;54230;52.402;6.276;2022-12-18T12:55:00;22.7;;;20.4;;
67344;SDS011;54230;52.402;6.276;2022-12-18T13:00:01;21.3;;;19.0;;
67344;SDS011;54230;52.402;6.276;2022-12-18T13:05:01;23.2;;;20.5;;
67344;SDS011;54230;52.402;6.276;2022-12-18T13:20:09;22.7;;;20.2;;
67344;SDS011;54230;52.402;6.276;2022-12-18T13:25:00;21.4;;;19.1;;
67344;SDS011;54230;52.402;6.276;2022-12-18T13:30:00;23.4;;;20.9;;
67344;SDS011;54230;52.402;6.276;2022-12-18T13:40:00;25.0;;;21.4;;
67344;SDS011;54230;52.402;6.276;2022-12-18T13:45:00;23.4;;;21.0;;
67344;SDS011;54230;52.402;6.276;2022-12-18T13:50:00;21.9;;;19.5;;
67344;SDS011;54230;52.402;6.276;2022-12-18T13:55:02;23.6;;;21.0;;
67344;SDS011;54230;52.402;6.276;2022-12-18T14:05:00;21.4;;;19.1;;
67344;SDS011;54230;52.402;6.276;2022-12-18T14:10:00;23.2;;;20.7;;
67344;SDS011;54230;52.402;6.276;2022-12-18T14:15:00;22.4;;;19.6;;
67344;SDS011;54230;52.402;6.276;2022-12-18T14:20:00;23.0;;;20.5;;
67344;SDS011;54230;52.402;6.276;2022-12-18T14:25:06;23.2;;;19.6;;
67344;SDS011;54230;52.402;6.276;2022-12-18T14:30:00;27.9;;;23.1;;
67344;SDS011;54230;52.402;6.276;2022-12-18T14:35:12;25.4;;;21.0;;
67344;SDS011;54230;52.402;6.276;2022-12-18T14:40:01;21.7;;;19.4;;
67344;SDS011;54230;52.402;6.276;2022-12-18T14:50:00;25.3;;;22.3;;
67344;SDS011;54230;52.402;6.276;2022-12-18T14:55:00;24.2;;;21.6;;
67344;SDS011;54230;52.402;6.276;2022-12-18T15:00:03;26.1;;;23.4;;
67344;SDS011;54230;52.402;6.276;2022-12-18T15:05:00;25.7;;;23.0;;
67344;SDS011;54230;52.402;6.276;2022-12-18T15:10:01;27.0;;;24.0;;
67344;SDS011;54230;52.402;6.276;2022-12-18T15:15:00;27.3;;;22.6;;
67344;SDS011;54230;52.402;6.276;2022-12-18T15:20:01;25.9;;;22.6;;
67344;SDS011;54230;52.402;6.276;2022-12-18T15:25:00;25.9;;;23.1;;
67344;SDS011;54230;52.402;6.276;2022-12-18T15:30:01;28.4;;;22.7;;
67344;SDS011;54230;52.402;6.276;2022-12-18T15:35:02;26.3;;;22.3;;
67344;SDS011;54230;52.402;6.276;2022-12-18T15:40:00;26.3;;;22.7;;
67344;SDS011;54230;52.402;6.276;2022-12-18T15:45:00;27.6;;;22.2;;
67344;SDS011;54230;52.402;6.276;2022-12-18T15:50:00;27.4;;;23.0;;
67344;SDS011;54230;52.402;6.276;2022-12-18T15:55:00;26.2;;;23.0;;
67344;SDS011;54230;52.402;6.276;2022-12-18T16:00:00;27.2;;;24.2;;
67344;SDS011;54230;52.402;6.276;2022-12-18T16:05:00;29.8;;;23.4;;
67344;SDS011;54230;52.402;6.276;2022-12-18T16:10:00;27.3;;;23.6;;
67344;SDS011;54230;52.402;6.276;2022-12-18T16:15:00;25.1;;;21.8;;
67344;SDS011;54230;52.402;6.276;2022-12-18T16:20:00;25.7;;;22.1;;
67344;SDS011;54230;52.402;6.276;2022-12-18T16:25:00;26.6;;;23.2;;
67344;SDS011;54230;52.402;6.276;2022-12-18T16:30:00;25.7;;;23.0;;
67344;SDS011;54230;52.402;6.276;2022-12-18T16:35:00;25.9;;;21.8;;
67344;SDS011;54230;52.402;6.276;2022-12-18T16:40:00;25.8;;;22.3;;
67344;SDS011;54230;52.402;6.276;2022-12-18T16:45:00;25.0;;;22.3;;
67344;SDS011;54230;52.402;6.276;2022-12-18T16:50:00;26.0;;;22.4;;
67344;SDS011;54230;52.402;6.276;2022-12-18T16:55:00;24.9;;;22.3;;
67344;SDS011;54230;52.402;6.276;2022-12-18T17:00:00;25.1;;;22.4;;
67344;SDS011;54230;52.402;6.276;2022-12-18T17:05:00;26.0;;;21.9;;
67344;SDS011;54230;52.402;6.276;2022-12-18T17:10:00;24.8;;;21.6;;
67344;SDS011;54230;52.402;6.276;2022-12-18T17:15:00;24.5;;;21.8;;
67344;SDS011;54230;52.402;6.276;2022-12-18T17:20:00;27.7;;;22.7;;
67344;SDS011;54230;52.402;6.276;2022-12-18T17:25:00;26.2;;;22.7;;
67344;SDS011;54230;52.402;6.276;2022-12-18T17:30:00;26.4;;;23.2;;
67344;SDS011;54230;52.402;6.276;2022-12-18T17:35:00;28.7;;;24.4;;
67344;SDS011;54230;52.402;6.276;2022-12-18T17:40:00;27.4;;;23.5;;
67344;SDS011;54230;52.402;6.276;2022-12-18T17:45:00;27.4;;;23.8;;
67344;SDS011;54230;52.402;6.276;2022-12-18T17:50:00;29.6;;;24.0;;
67344;SDS011;54230;52.402;6.276;2022-12-18T17:55:00;28.6;;;24.0;;
67344;SDS011;54230;52.402;6.276;2022-12-18T18:00:00;30.3;;;24.9;;
67344;SDS011;54230;52.402;6.276;2022-12-18T18:05:00;29.0;;;24.0;;
67344;SDS011;54230;52.402;6.276;2022-12-18T18:10:00;29.6;;;22.9;;
67344;SDS011;54230;52.402;6.276;2022-12-18T18:15:00;32.1;;;25.7;;
67344;SDS011;54230;52.402;6.276;2022-12-18T18:20:00;30.6;;;24.9;;
67344;SDS011;54230;52.402;6.276;2022-12-18T18:25:00;33.8;;;26.6;;
67344;SDS011;54230;52.402;6.276;2022-12-18T18:30:00;35.5;;;27.8;;
67344;SDS011;54230;52.402;6.276;2022-12-18T18:35:00;36.7;;;27.7;;
67344;SDS011;54230;52.402;6.276;2022-12-18T18:40:00;36.3;;;28.3;;
67344;SDS011;54230;52.402;6.276;2022-12-18T18:45:00;40.1;;;28.8;;
67344;SDS011;54230;52.402;6.276;2022-12-18T18:50:00;39.2;;;28.5;;
67344;SDS011;54230;52.402;6.276;2022-12-18T18:55:00;38.5;;;28.0;;
67344;SDS011;54230;52.402;6.276;2022-12-18T19:00:00;42.8;;;28.9;;
67344;SDS011;54230;52.402;6.276;2022-12-18T19:05:00;38.5;;;28.9;;
67344;SDS011;54230;52.402;6.276;2022-12-18T19:10:00;40.7;;;29.6;;
67344;SDS011;54230;52.402;6.276;2022-12-18T19:15:00;41.2;;;29.5;;
67344;SDS011;54230;52.402;6.276;2022-12-18T19:20:00;42.7;;;29.0;;
67344;SDS011;54230;52.402;6.276;2022-12-18T19:25:00;41.4;;;30.1;;
67344;SDS011;54230;52.402;6.276;2022-12-18T19:30:00;42.2;;;29.1;;
67344;SDS011;54230;52.402;6.276;2022-12-18T19:35:00;41.5;;;28.5;;
67344;SDS011;54230;52.402;6.276;2022-12-18T19:40:00;42.1;;;29.1;;
67344;SDS011;54230;52.402;6.276;2022-12-18T19:45:00;44.2;;;32.0;;
67344;SDS011;54230;52.402;6.276;2022-12-18T19:50:00;46.8;;;32.6;;
67344;SDS011;54230;52.402;6.276;2022-12-18T19:55:00;42.3;;;30.5;;
67344;SDS011;54230;52.402;6.276;2022-12-18T20:00:00;45.8;;;31.7;;
67344;SDS011;54230;52.402;6.276;2022-12-18T20:05:00;46.6;;;32.8;;
67344;SDS011;54230;52.402;6.276;2022-12-18T20:10:00;43.5;;;29.5;;
67344;SDS011;54230;52.402;6.276;2022-12-18T20:15:00;45.6;;;32.2;;
67344;SDS011;54230;52.402;6.276;2022-12-18T20:20:00;47.3;;;33.8;;
67344;SDS011;54230;52.402;6.276;2022-12-18T20:25:00;44.3;;;30.5;;
67344;SDS011;54230;52.402;6.276;2022-12-18T20:30:00;43.2;;;30.9;;
67344;SDS011;54230;52.402;6.276;2022-12-18T20:35:00;46.4;;;31.4;;
67344;SDS011;54230;52.402;6.276;2022-12-18T20:40:00;46.7;;;33.2;;
67344;SDS011;54230;52.402;6.276;2022-12-18T20:45:00;48.8;;;32.4;;
67344;SDS011;54230;52.402;6.276;2022-12-18T20:50:00;45.9;;;29.6;;
67344;SDS011;54230;52.402;6.276;2022-12-18T20:55:03;43.7;;;29.9;;
67344;SDS011;54230;52.402;6.276;2022-12-18T21:00:00;48.7;;;32.5;;
67344;SDS011;54230;52.402;6.276;2022-12-18T21:05:00;46.1;;;32.0;;
67344;SDS011;54230;52.402;6.276;2022-12-18T21:10:03;47.2;;;31.5;;
67344;SDS011;54230;52.402;6.276;2022-12-18T21:15:00;47.0;;;31.7;;
67344;SDS011;54230;52.402;6.276;2022-12-18T21:20:00;51.9;;;33.7;;
67344;SDS011;54230;52.402;6.276;2022-12-18T21:25:00;45.1;;;31.5;;
67344;SDS011;54230;52.402;6.276;2022-12-18T21:30:00;49.7;;;34.1;;
67344;SDS011;54230;52.402;6.276;2022-12-18T21:35:00;50.5;;;33.4;;
67344;SDS011;54230;52.402;6.276;2022-12-18T21:40:00;54.3;;;33.7;;
67344;SDS011;54230;52.402;6.276;2022-12-18T21:45:00;49.9;;;35.7;;
67344;SDS011;54230;52.402;6.276;2022-12-18T21:50:00;49.8;;;32.8;;
67344;SDS011;54230;52.402;6.276;2022-12-18T21:55:00;55.1;;;35.9;;
67344;SDS011;54230;52.402;6.276;2022-12-18T22:00:00;51.7;;;33.2;;
67344;SDS011;54230;52.402;6.276;2022-12-18T22:05:00;51.7;;;31.7;;
67344;SDS011;54230;52.402;6.276;2022-12-18T22:10:00;53.8;;;35.5;;
67344;SDS011;54230;52.402;6.276;2022-12-18T22:15:01;53.6;;;36.2;;
67344;SDS011;54230;52.402;6.276;2022-12-18T22:20:00;54.2;;;34.5;;
67344;SDS011;54230;52.402;6.276;2022-12-18T22:25:00;55.1;;;34.7;;
67344;SDS011;54230;52.402;6.276;2022-12-18T22:30:00;54.7;;;34.7;;
67344;SDS011;54230;52.402;6.276;2022-12-18T22:35:00;54.3;;;34.4;;
67344;SDS011;54230;52.402;6.276;2022-12-18T22:40:00;52.1;;;34.3;;
67344;SDS011;54230;52.402;6.276;2022-12-18T22:45:00;58.8;;;37.3;;
67344;SDS011;54230;52.402;6.276;2022-12-18T22:50:00;53.8;;;33.3;;
67344;SDS011;54230;52.402;6.276;2022-12-18T22:55:00;54.3;;;33.9;;
67344;SDS011;54230;52.402;6.276;2022-12-18T23:00:00;53.7;;;34.4;;
67344;SDS011;54230;52.402;6.276;2022-12-18T23:05:00;59.1;;;34.9;;
67344;SDS011;54230;52.402;6.276;2022-12-18T23:10:00;58.5;;;34.6;;
67344;SDS011;54230;52.402;6.276;2022-12-18T23:15:00;57.6;;;35.8;;
67344;SDS011;54230;52.402;6.276;2022-12-18T23:20:00;58.2;;;35.1;;
67344;SDS011;54230;52.402;6.276;2022-12-18T23:25:00;58.7;;;36.0;;
67344;SDS011;54230;52.402;6.276;2022-12-18T23:30:00;59.5;;;35.3;;
67344;SDS011;54230;52.402;6.276;2022-12-18T23:35:00;60.3;;;36.4;;
67344;SDS011;54230;52.402;6.276;2022-12-18T23:40:00;60.1;;;36.0;;
67344;SDS011;54230;52.402;6.276;2022-12-18T23:45:00;59.4;;;35.4;;
67344;SDS011;54230;52.402;6.276;2022-12-18T23:50:00;58.7;;;35.0;;
67344;SDS011;54230;52.402;6.276;2022-12-18T23:55:00;58.6;;;35.4;;
